Time;durP1;ratioP1;P1;durP2;ratioP2;P2;SDS_P1;SDS_P2;PMS_P1;PMS_P2;Temp;Humidity;BMP_temperature;BMP_pressure;BME280_temperature;BME280_humidity;BME280_pressure;Samples;Min_cycle;Max_cycle;Signal;HPM_P1;HPM_P2
2023/08/16 04:09:45;;;;;;;1.20;1.10;;;19.00;60.10;;;;;;4767831;29;20214;-71
2023/08/16 04:12:14;;;;;;;1.10;1.00;;;19.00;60.10;;;;;;4805589;29;20237;-71
2023/08/16 04:15:13;;;;;;;1.52;1.17;;;19.00;60.20;;;;;;4826210;29;20212;-71
2023/08/16 04:37:05;;;;;;;1.35;1.00;;;18.90;59.90;;;;;;4912714;29;20669;-71
2023/08/16 04:39:32;;;;;;;0.82;0.82;;;18.90;59.80;;;;;;4935364;29;20209;-71
2023/08/16 04:42:18;;;;;;;;;;;;;;;;;;;;;
2023/08/16 05:36:21;;;;;;;1.40;0.93;;;18.80;59.30;;;;;;5033547;28;20562;-71
2023/08/16 07:58:43;;;;;;;3.22;1.60;;;20.00;65.30;;;;;;4989683;28;20589;-60
2023/08/16 08:01:10;;;;;;;2.28;1.50;;;20.00;65.50;;;;;;5012353;28;20646;-60
2023/08/16 08:03:37;;;;;;;3.38;1.60;;;20.00;65.40;;;;;;5069848;28;20268;-63
2023/08/16 08:06:04;;;;;;;3.55;1.38;;;20.00;65.40;;;;;;5065003;28;20266;-62
2023/08/16 08:08:31;;;;;;;5.25;1.70;;;20.00;65.40;;;;;;5051725;28;20314;-62
2023/08/16 08:10:59;;;;;;;5.38;1.63;;;20.00;65.30;;;;;;5054696;28;20278;-62
2023/08/16 08:13:26;;;;;;;2.25;1.38;;;20.10;66.10;;;;;;5055028;28;20215;-64
2023/08/16 08:15:55;;;;;;;3.53;1.40;;;20.10;66.20;;;;;;5052559;28;20198;-62
2023/08/16 08:18:22;;;;;;;4.00;1.65;;;20.10;65.30;;;;;;5054429;28;20409;-62
2023/08/16 08:20:49;;;;;;;3.13;1.50;;;20.10;65.40;;;;;;5054632;28;20219;-64
2023/08/16 08:23:17;;;;;;;4.80;2.20;;;20.20;65.30;;;;;;5045894;28;20257;-63
2023/08/16 08:25:44;;;;;;;6.90;1.90;;;20.20;65.30;;;;;;5038445;28;21042;-62
2023/08/16 08:28:13;;;;;;;4.32;1.38;;;20.20;65.40;;;;;;5044317;28;20236;-63
2023/08/16 08:30:44;;;;;;;4.72;1.60;;;20.20;65.40;;;;;;4997615;28;20725;-61
2023/08/16 08:33:21;;;;;;;4.82;1.50;;;20.30;65.30;;;;;;5017394;28;20230;-65
2023/08/16 08:36:03;;;;;;;6.43;1.77;;;20.30;65.30;;;;;;5016655;28;20208;-68
2023/08/16 08:38:32;;;;;;;4.15;1.55;;;20.30;65.40;;;;;;4986778;28;20227;-67
2023/08/16 08:41:01;;;;;;;4.90;1.80;;;20.30;65.50;;;;;;4988435;28;20196;-68
2023/08/16 08:43:33;;;;;;;3.55;1.40;;;20.30;65.50;;;;;;5013221;28;20236;-69
2023/08/16 08:49:44;;;;;;;4.25;1.80;;;20.30;65.80;;;;;;5053765;28;20232;-68
2023/08/16 08:52:20;;;;;;;4.68;2.20;;;20.30;65.80;;;;;;5000791;28;20247;-69
2023/08/16 08:57:37;;;;;;;7.50;2.08;;;20.30;66.20;;;;;;4960173;28;20680;-63
2023/08/16 09:00:37;;;;;;;4.07;2.05;;;20.30;66.20;;;;;;4936730;28;20288;-64
2023/08/16 09:03:25;;;;;;;4.78;2.00;;;20.40;66.20;;;;;;4989953;28;20228;-64
2023/08/16 10:12:31;;;;;;;4.93;1.90;;;20.80;66.10;;;;;;4957685;28;20234;-68
2023/08/16 11:55:04;;;;;;;3.55;1.70;;;21.30;64.60;;;;;;4952169;29;20298;-65
2023/08/16 12:17:17;;;;;;;2.60;1.63;;;21.40;64.60;;;;;;4795920;29;20211;-63
2023/08/16 12:39:12;;;;;;;2.05;1.73;;;21.40;64.50;;;;;;4816864;29;20244;-65
2023/08/16 12:41:40;;;;;;;2.80;1.60;;;21.40;64.50;;;;;;4818591;29;20213;-66
2023/08/16 12:56:46;;;;;;;4.60;1.90;;;21.50;64.40;;;;;;4803124;29;20315;-61
2023/08/16 13:02:21;;;;;;;4.50;2.28;;;21.50;64.40;;;;;;4845102;29;20702;-59
2023/08/16 13:04:52;;;;;;;3.13;1.85;;;21.50;64.40;;;;;;4895364;29;20232;-57
2023/08/16 13:10:32;;;;;;;7.32;2.13;;;21.60;64.60;;;;;;4864136;29;20232;-60
2023/08/16 13:13:11;;;;;;;;;;;;;;;;;;;;;
2023/08/16 13:15:46;;;;;;;3.50;2.10;;;21.50;64.40;;;;;;4832623;29;20244;-57
2023/08/16 13:18:15;;;;;;;6.22;2.08;;;21.50;64.40;;;;;;4856526;29;20208;-61
2023/08/16 13:37:17;;;;;;;5.43;2.05;;;21.60;64.60;;;;;;4888422;29;20829;-58
2023/08/16 13:42:38;;;;;;;4.55;1.98;;;21.60;64.60;;;;;;4885517;29;20216;-60
2023/08/16 13:48:10;;;;;;;3.15;2.03;;;21.60;64.70;;;;;;4888779;29;20708;-60
2023/08/16 13:50:45;;;;;;;2.85;1.88;;;21.60;64.70;;;;;;4874831;29;20220;-60
2023/08/16 13:56:19;;;;;;;3.70;1.90;;;21.60;64.60;;;;;;4875050;29;20679;-59
2023/08/16 14:02:19;;;;;;;2.67;1.95;;;21.70;64.70;;;;;;4854010;29;20401;-59
2023/08/16 14:04:53;;;;;;;4.00;1.88;;;21.70;64.70;;;;;;4861855;29;20325;-59
2023/08/16 14:25:07;;;;;;;3.10;2.00;;;21.80;64.70;;;;;;4845425;29;20235;-62
2023/08/16 14:27:52;;;;;;;7.38;2.05;;;21.70;64.60;;;;;;4867483;29;20210;-63
2023/08/16 14:30:19;;;;;;;2.83;1.95;;;21.80;64.70;;;;;;4870011;29;20270;-62
2023/08/16 14:32:53;;;;;;;4.93;2.10;;;21.80;64.60;;;;;;4869673;29;20222;-58
2023/08/16 14:35:21;;;;;;;3.65;2.15;;;21.80;64.60;;;;;;4866769;29;20235;-61
2023/08/16 14:38:31;;;;;;;4.28;1.90;;;21.80;64.60;;;;;;4868325;29;20242;-61
2023/08/16 14:41:02;;;;;;;3.08;1.83;;;21.80;64.60;;;;;;4868837;29;20218;-60
2023/08/16 14:43:30;;;;;;;2.03;1.80;;;21.80;64.60;;;;;;4870863;29;20203;-60
2023/08/16 14:46:02;;;;;;;3.90;2.00;;;21.80;64.50;;;;;;4881322;29;20215;-58
2023/08/16 14:48:47;;;;;;;3.50;2.42;;;21.80;64.50;;;;;;4873397;29;20235;-59
2023/08/16 14:51:22;;;;;;;3.35;1.98;;;21.90;64.50;;;;;;4905548;29;20253;-61
2023/08/16 14:53:50;;;;;;;3.20;1.83;;;21.90;64.50;;;;;;4908250;29;20240;-58
2023/08/16 14:56:20;;;;;;;3.85;2.05;;;21.90;64.40;;;;;;4905113;29;20287;-60
2023/08/16 15:01:49;;;;;;;2.97;1.70;;;21.90;64.40;;;;;;4902459;29;20209;-57
2023/08/16 15:04:19;;;;;;;4.03;1.77;;;21.90;64.30;;;;;;4908035;29;20233;-60
2023/08/16 15:06:46;;;;;;;2.90;1.80;;;21.90;64.30;;;;;;4908961;29;20461;-59
2023/08/16 15:09:14;;;;;;;4.60;1.95;;;21.90;64.20;;;;;;4907222;29;20476;-59
2023/08/16 15:11:42;;;;;;;6.25;1.90;;;21.90;64.20;;;;;;4908986;29;20205;-61
2023/08/16 15:14:12;;;;;;;3.60;2.08;;;22.00;64.30;;;;;;4909087;29;20231;-61
2023/08/16 15:16:40;;;;;;;2.00;1.80;;;22.00;65.00;;;;;;4909457;29;20472;-60
2023/08/16 15:19:07;;;;;;;2.75;1.85;;;22.00;65.00;;;;;;4909245;29;20883;-61
2023/08/16 15:30:55;;;;;;;1.90;1.70;;;22.20;64.00;;;;;;4882250;29;20808;-61
2023/08/16 15:36:52;;;;;;;3.10;1.75;;;22.10;63.60;;;;;;4843396;29;20790;-60
2023/08/16 15:42:11;;;;;;;4.70;2.00;;;22.30;63.60;;;;;;4852766;29;20211;-63
2023/08/16 15:44:40;;;;;;;3.88;1.80;;;22.30;63.50;;;;;;4852132;29;20278;-65
2023/08/16 15:47:08;;;;;;;3.30;1.90;;;22.30;63.30;;;;;;4851572;29;20208;-66
2023/08/16 15:49:57;;;;;;;2.95;1.90;;;22.40;63.10;;;;;;4851570;29;20249;-65
2023/08/16 15:52:27;;;;;;;5.68;2.45;;;22.40;63.00;;;;;;4815187;29;20205;-65
2023/08/16 15:54:55;;;;;;;4.15;1.92;;;22.40;62.90;;;;;;4813824;29;20691;-65
2023/08/16 16:10:56;;;;;;;3.95;1.80;;;22.60;62.70;;;;;;4809605;29;20274;-62
2023/08/16 16:13:34;;;;;;;3.33;1.60;;;22.60;62.80;;;;;;4837780;29;20293;-62
2023/08/16 16:16:04;;;;;;;2.90;1.98;;;22.70;62.90;;;;;;4792679;29;20224;-62
2023/08/16 16:18:32;;;;;;;4.15;2.10;;;22.60;62.50;;;;;;4837987;29;20196;-61
2023/08/16 16:21:13;;;;;;;;;;;;;;;;;;;;;
2023/08/16 16:23:54;;;;;;;2.17;1.60;;;22.60;62.50;;;;;;4837568;29;20725;-62
2023/08/16 16:33:30;;;;;;;2.42;1.77;;;22.40;62.30;;;;;;4916343;29;20690;-61
2023/08/16 16:39:29;;;;;;;;;;;;;;;;;;;;;
2023/08/16 16:45:05;;;;;;;2.75;1.40;;;22.30;62.60;;;;;;4817960;29;20239;-62
2023/08/16 16:48:26;;;;;;;;;;;;;;;;;;;;;
2023/08/16 18:02:45;;;;;;;2.03;1.27;;;21.80;62.30;;;;;;4782145;29;20256;-58
2023/08/16 18:05:12;;;;;;;2.78;1.65;;;21.80;62.30;;;;;;4785558;30;20253;-60
2023/08/16 18:07:39;;;;;;;2.13;1.38;;;21.80;62.30;;;;;;4805305;29;20205;-59
2023/08/16 18:10:07;;;;;;;1.27;1.17;;;21.80;62.30;;;;;;4821448;29;20248;-59
2023/08/16 18:15:19;;;;;;;1.40;1.30;;;21.80;62.30;;;;;;4821452;29;20229;-55
2023/08/16 18:17:48;;;;;;;2.10;1.50;;;21.80;62.30;;;;;;4818599;29;20292;-59
2023/08/16 18:20:15;;;;;;;1.85;1.25;;;21.70;62.20;;;;;;4819871;29;20311;-57
2023/08/16 18:22:42;;;;;;;1.25;1.15;;;21.80;62.30;;;;;;4838852;29;20208;-59
2023/08/16 18:25:33;;;;;;;2.80;1.40;;;21.70;62.20;;;;;;4839705;29;20230;-60
2023/08/16 18:28:08;;;;;;;2.25;1.30;;;21.70;62.20;;;;;;4870590;29;20217;-57
2023/08/16 18:30:35;;;;;;;1.40;1.30;;;21.70;62.30;;;;;;4894718;29;20237;-57
2023/08/16 18:33:04;;;;;;;1.85;1.20;;;21.70;62.30;;;;;;4895047;29;20286;-57
2023/08/16 18:35:32;;;;;;;2.03;1.20;;;21.70;62.40;;;;;;4894344;29;20245;-57
2023/08/16 18:38:00;;;;;;;1.90;1.38;;;21.70;62.40;;;;;;4894759;29;20190;-57
2023/08/16 18:40:28;;;;;;;3.13;1.35;;;21.70;62.40;;;;;;4899595;29;20256;-56
2023/08/16 18:42:55;;;;;;;4.15;1.73;;;21.70;62.40;;;;;;4913822;29;20227;-56
2023/08/16 18:45:23;;;;;;;1.48;1.33;;;21.70;62.40;;;;;;4914013;29;20217;-60
2023/08/16 18:47:50;;;;;;;2.90;1.50;;;21.70;62.40;;;;;;4913519;29;20190;-55
2023/08/16 18:50:21;;;;;;;1.50;1.25;;;21.70;62.40;;;;;;4912108;29;20228;-56
2023/08/16 18:52:49;;;;;;;3.33;1.45;;;21.70;62.40;;;;;;4913336;29;20200;-63
2023/08/16 18:55:16;;;;;;;2.70;1.52;;;21.70;62.40;;;;;;4913927;29;20703;-63
2023/08/16 18:57:42;;;;;;;1.60;1.50;;;21.70;62.40;;;;;;4912894;29;20738;-63
2023/08/16 19:00:10;;;;;;;2.38;1.63;;;21.70;62.40;;;;;;4912797;29;20221;-61
2023/08/16 19:02:37;;;;;;;1.38;1.27;;;21.70;62.40;;;;;;4913630;29;20711;-63
2023/08/16 19:05:04;;;;;;;2.33;1.60;;;21.70;62.40;;;;;;4913740;29;20225;-54
2023/08/16 19:07:33;;;;;;;1.63;1.50;;;21.70;62.40;;;;;;4913424;29;20284;-57
2023/08/16 19:09:59;;;;;;;1.75;1.42;;;21.70;62.40;;;;;;4913580;29;20247;-55
2023/08/16 19:12:26;;;;;;;1.88;1.55;;;21.60;62.40;;;;;;4913545;29;20292;-56
2023/08/16 19:14:53;;;;;;;3.08;1.40;;;21.60;62.40;;;;;;4913544;29;20321;-57
2023/08/16 19:17:20;;;;;;;2.08;1.60;;;21.60;62.50;;;;;;4913177;29;20363;-57
2023/08/16 19:19:47;;;;;;;1.95;1.60;;;21.60;62.50;;;;;;4913441;29;20319;-57
2023/08/16 19:22:14;;;;;;;2.13;1.75;;;21.60;62.50;;;;;;4913497;29;20292;-58
2023/08/16 19:24:42;;;;;;;3.13;1.48;;;21.60;62.60;;;;;;4912819;29;20817;-57
2023/08/16 19:27:09;;;;;;;2.13;1.38;;;21.60;62.60;;;;;;4912256;29;20289;-58
2023/08/16 19:29:36;;;;;;;3.28;1.60;;;21.60;62.60;;;;;;4913013;29;20285;-59
2023/08/16 19:32:03;;;;;;;3.42;1.50;;;21.60;62.60;;;;;;4913449;29;20289;-59
2023/08/16 19:34:30;;;;;;;2.97;1.73;;;21.60;62.60;;;;;;4910712;29;20356;-58
2023/08/16 19:36:56;;;;;;;2.55;1.42;;;21.60;62.70;;;;;;4913382;29;20194;-58
2023/08/16 19:39:24;;;;;;;2.53;1.60;;;21.50;62.60;;;;;;4912778;29;20331;-58
2023/08/16 19:41:52;;;;;;;2.60;1.55;;;21.50;62.60;;;;;;4913518;29;20201;-58
2023/08/16 19:44:19;;;;;;;2.20;1.60;;;21.50;62.70;;;;;;4913297;29;20293;-56
2023/08/16 19:46:46;;;;;;;2.08;1.70;;;21.50;62.70;;;;;;4913190;29;20198;-56
2023/08/16 19:49:51;;;;;;;2.38;1.80;;;21.50;62.70;;;;;;4912781;29;20288;-55
2023/08/16 19:52:18;;;;;;;2.38;1.92;;;21.50;62.70;;;;;;4913197;29;20193;-58
2023/08/16 19:54:46;;;;;;;1.70;1.60;;;21.50;62.80;;;;;;4911462;29;20592;-57
2023/08/16 19:57:14;;;;;;;2.13;1.63;;;21.50;62.80;;;;;;4911293;29;20292;-58
2023/08/16 19:59:43;;;;;;;2.15;1.73;;;21.50;62.80;;;;;;4912886;29;20806;-57
2023/08/16 20:02:41;;;;;;;2.15;1.50;;;21.40;62.80;;;;;;4912731;29;20237;-56
2023/08/16 20:05:09;;;;;;;2.00;1.58;;;21.50;62.90;;;;;;4914672;29;20221;-55
2023/08/16 20:07:37;;;;;;;2.45;1.55;;;21.40;62.80;;;;;;4916688;29;20233;-58
2023/08/16 20:10:04;;;;;;;2.95;1.70;;;21.50;63.00;;;;;;4909912;29;20331;-58
2023/08/16 20:13:04;;;;;;;1.88;1.60;;;21.50;63.00;;;;;;4912916;29;20205;-58
2023/08/16 20:15:34;;;;;;;3.20;1.77;;;21.40;62.80;;;;;;4878946;29;20307;-58
2023/08/16 20:24:00;;;;;;;1.83;1.52;;;21.40;63.00;;;;;;4832795;29;20211;-56
2023/08/16 20:26:27;;;;;;;2.78;1.80;;;21.40;63.00;;;;;;4857181;29;20219;-54
2023/08/16 20:29:21;;;;;;;3.38;1.73;;;21.40;63.80;;;;;;4859939;29;20203;-59
2023/08/16 20:31:52;;;;;;;2.08;1.70;;;21.40;63.10;;;;;;4857050;29;20230;-58
2023/08/16 20:34:29;;;;;;;2.05;1.50;;;21.30;63.10;;;;;;4860021;29;20223;-55
2023/08/16 20:36:56;;;;;;;2.22;1.63;;;21.30;63.10;;;;;;4859258;29;20220;-54
2023/08/16 20:39:31;;;;;;;3.00;1.70;;;21.30;63.10;;;;;;4859443;29;20235;-56
2023/08/16 20:41:58;;;;;;;2.00;1.42;;;21.30;63.10;;;;;;4857002;29;20203;-58
2023/08/16 20:44:27;;;;;;;2.60;1.70;;;21.30;63.20;;;;;;4859692;29;20212;-58
2023/08/16 20:46:55;;;;;;;2.03;1.67;;;21.20;63.10;;;;;;4860068;29;20211;-58
2023/08/16 20:49:23;;;;;;;2.95;1.80;;;21.30;63.20;;;;;;4859451;29;20192;-54
2023/08/16 20:52:27;;;;;;;1.88;1.58;;;21.20;63.10;;;;;;4868343;29;20311;-57
2023/08/16 20:55:03;;;;;;;1.90;1.58;;;21.20;63.10;;;;;;4915865;29;20328;-59
2023/08/16 21:30:50;;;;;;;1.50;1.40;;;21.20;63.00;;;;;;4781288;29;20241;-54
2023/08/16 21:34:06;;;;;;;;;;;;;;;;;;;;;
2023/08/16 21:42:39;;;;;;;2.03;1.40;;;21.10;62.70;;;;;;4913301;29;20247;-60
2023/08/16 21:45:09;;;;;;;2.42;1.60;;;21.10;62.80;;;;;;4914638;29;20221;-58
2023/08/16 21:47:52;;;;;;;2.58;1.50;;;21.10;62.80;;;;;;4914716;29;20189;-59
2023/08/16 21:50:30;;;;;;;2.13;1.67;;;21.10;62.70;;;;;;4913495;29;20248;-61
2023/08/16 21:53:03;;;;;;;1.63;1.27;;;21.10;62.70;;;;;;4883704;29;20207;-58
2023/08/16 21:55:30;;;;;;;1.77;1.40;;;21.10;62.70;;;;;;4912991;29;20280;-56
2023/08/16 21:58:13;;;;;;;2.67;1.75;;;21.00;62.60;;;;;;4914670;29;20280;-60
2023/08/16 22:01:05;;;;;;;;;;;;;;;;;;;;;
2023/08/16 22:55:18;;;;;;;2.38;1.80;;;20.90;62.40;;;;;;4837717;29;20183;-57
2023/08/16 22:58:32;;;;;;;;;;;;;;;;;;;;;
2023/08/16 23:01:39;;;;;;;1.83;1.70;;;21.00;62.50;;;;;;4894617;29;20650;-58
2023/08/16 23:04:08;;;;;;;2.60;2.00;;;20.90;62.40;;;;;;4894654;29;20190;-59
2023/08/16 23:06:46;;;;;;;3.15;1.80;;;21.00;62.50;;;;;;4896736;29;20221;-58
2023/08/16 23:09:14;;;;;;;2.20;1.80;;;21.00;62.50;;;;;;4882652;29;20204;-60
2023/08/16 23:14:33;;;;;;;2.85;1.88;;;21.00;62.50;;;;;;4911891;29;20245;-57
2023/08/16 23:17:01;;;;;;;2.30;1.80;;;20.90;62.50;;;;;;4876808;29;20220;-58
2023/08/16 23:19:30;;;;;;;2.42;1.83;;;21.00;62.50;;;;;;4932473;29;20309;-61
2023/08/16 23:22:21;;;;;;;2.20;2.00;;;21.00;62.60;;;;;;4932372;29;20196;-58
2023/08/16 23:24:49;;;;;;;2.30;1.88;;;20.90;62.50;;;;;;4919630;29;20319;-60
2023/08/16 23:27:16;;;;;;;2.45;2.10;;;20.90;62.40;;;;;;4932430;29;20685;-59
2023/08/16 23:33:09;;;;;;;2.22;1.85;;;21.00;62.50;;;;;;4903573;29;20213;-59
2023/08/16 23:45:00;;;;;;;2.83;1.85;;;21.00;62.60;;;;;;4861035;29;20219;-58
2023/08/16 23:47:28;;;;;;;2.28;1.90;;;20.90;62.50;;;;;;4861036;29;20215;-54
2023/08/16 23:49:57;;;;;;;2.95;2.13;;;21.00;62.70;;;;;;4860901;29;20231;-59
2023/08/16 23:52:44;;;;;;;2.72;2.25;;;20.90;62.60;;;;;;4861102;29;20242;-60
2023/08/16 23:55:33;;;;;;;3.47;1.90;;;20.90;62.60;;;;;;4858377;29;20223;-59
